sensor_id;sensor_type;location;lat;lon;timestamp;pressure;altitude;pressure_sealevel;temperature;humidity
55470;BME280;41334;47.872;16.384;2023-05-03T00:02:11;99561.78;;;10.87;83.32
55470;BME280;41334;47.872;16.384;2023-05-03T00:07:12;99559.91;;;10.83;83.24
55470;BME280;41334;47.872;16.384;2023-05-03T00:12:15;99554.66;;;10.81;83.36
55470;BME280;41334;47.872;16.384;2023-05-03T00:17:16;99557.38;;;10.86;85.01
55470;BME280;41334;47.872;16.384;2023-05-03T00:22:18;99550.50;;;10.84;83.66
55470;BME280;41334;47.872;16.384;2023-05-03T00:27:20;99544.59;;;10.90;84.49
55470;BME280;41334;47.872;16.384;2023-05-03T00:32:22;99552.31;;;10.93;84.00
55470;BME280;41334;47.872;16.384;2023-05-03T00:37:24;99549.22;;;10.95;83.38
55470;BME280;41334;47.872;16.384;2023-05-03T00:42:26;99547.59;;;10.94;83.20
55470;BME280;41334;47.872;16.384;2023-05-03T00:47:28;99549.63;;;10.88;83.24
55470;BME280;41334;47.872;16.384;2023-05-03T00:52:30;99548.88;;;10.83;83.79
55470;BME280;41334;47.872;16.384;2023-05-03T00:57:32;99558.34;;;10.77;84.41
55470;BME280;41334;47.872;16.384;2023-05-03T01:02:33;99552.59;;;10.73;85.12
55470;BME280;41334;47.872;16.384;2023-05-03T01:07:44;99552.59;;;10.73;84.07
55470;BME280;41334;47.872;16.384;2023-05-03T01:13:13;99547.38;;;10.71;84.83
55470;BME280;41334;47.872;16.384;2023-05-03T01:18:22;99550.13;;;10.71;85.10
55470;BME280;41334;47.872;16.384;2023-05-03T01:28:31;99547.94;;;10.68;84.35
55470;BME280;41334;47.872;16.384;2023-05-03T01:33:41;99545.19;;;10.68;85.42
55470;BME280;41334;47.872;16.384;2023-05-03T01:38:46;99541.31;;;10.69;83.86
55470;BME280;41334;47.872;16.384;2023-05-03T01:43:50;99535.56;;;10.66;83.97
55470;BME280;41334;47.872;16.384;2023-05-03T01:48:53;99535.25;;;10.67;85.54
55470;BME280;41334;47.872;16.384;2023-05-03T01:53:55;99542.50;;;10.63;84.29
55470;BME280;41334;47.872;16.384;2023-05-03T01:58:57;99541.38;;;10.64;84.36
55470;BME280;41334;47.872;16.384;2023-05-03T02:03:59;99539.22;;;10.61;84.49
55470;BME280;41334;47.872;16.384;2023-05-03T02:09:01;99534.28;;;10.58;84.03
55470;BME280;41334;47.872;16.384;2023-05-03T02:14:03;99546.38;;;10.62;84.13
55470;BME280;41334;47.872;16.384;2023-05-03T02:19:05;99538.59;;;10.64;83.56
55470;BME280;41334;47.872;16.384;2023-05-03T02:24:08;99535.56;;;10.66;84.29
55470;BME280;41334;47.872;16.384;2023-05-03T02:29:10;99528.44;;;10.60;83.09
55470;BME280;41334;47.872;16.384;2023-05-03T02:34:12;99541.16;;;10.61;84.11
55470;BME280;41334;47.872;16.384;2023-05-03T02:39:14;99548.91;;;10.59;84.02
55470;BME280;41334;47.872;16.384;2023-05-03T02:44:15;99538.97;;;10.58;84.26
55470;BME280;41334;47.872;16.384;2023-05-03T02:49:17;99530.69;;;10.58;83.93
55470;BME280;41334;47.872;16.384;2023-05-03T02:54:44;99543.31;;;10.64;84.24
55470;BME280;41334;47.872;16.384;2023-05-03T03:00:30;99550.28;;;10.61;83.72
55470;BME280;41334;47.872;16.384;2023-05-03T03:05:32;99546.63;;;10.66;84.05
55470;BME280;41334;47.872;16.384;2023-05-03T03:10:34;99546.31;;;10.67;83.97
55470;BME280;41334;47.872;16.384;2023-05-03T03:15:38;99554.09;;;10.65;83.64
55470;BME280;41334;47.872;16.384;2023-05-03T03:20:43;99548.25;;;10.67;84.17
55470;BME280;41334;47.872;16.384;2023-05-03T03:25:45;99555.19;;;10.64;84.62
55470;BME280;41334;47.872;16.384;2023-05-03T03:30:47;99556.63;;;10.62;83.57
55470;BME280;41334;47.872;16.384;2023-05-03T03:35:55;99555.78;;;10.61;84.69
55470;BME280;41334;47.872;16.384;2023-05-03T03:41:01;99554.16;;;10.60;84.40
55470;BME280;41334;47.872;16.384;2023-05-03T03:46:03;99559.69;;;10.60;83.66
55470;BME280;41334;47.872;16.384;2023-05-03T03:51:06;99568.47;;;10.62;84.47
55470;BME280;41334;47.872;16.384;2023-05-03T03:56:15;99568.72;;;10.66;84.28
55470;BME280;41334;47.872;16.384;2023-05-03T04:01:18;99579.97;;;10.69;83.07
55470;BME280;41334;47.872;16.384;2023-05-03T04:06:21;99576.88;;;10.76;82.73
55470;BME280;41334;47.872;16.384;2023-05-03T04:11:23;99578.72;;;10.81;82.53
55470;BME280;41334;47.872;16.384;2023-05-03T04:16:31;99588.59;;;10.87;83.20
55470;BME280;41334;47.872;16.384;2023-05-03T04:21:36;99587.41;;;10.93;82.01
55470;BME280;41334;47.872;16.384;2023-05-03T04:26:38;99596.06;;;11.05;81.38
55470;BME280;41334;47.872;16.384;2023-05-03T04:31:47;99601.53;;;11.10;81.06
55470;BME280;41334;47.872;16.384;2023-05-03T04:36:50;99605.56;;;11.18;80.88
55470;BME280;41334;47.872;16.384;2023-05-03T04:41:52;99605.19;;;11.24;81.08
55470;BME280;41334;47.872;16.384;2023-05-03T04:46:54;99607.59;;;11.31;80.46
55470;BME280;41334;47.872;16.384;2023-05-03T04:51:59;99619.91;;;11.39;81.26
55470;BME280;41334;47.872;16.384;2023-05-03T04:57:02;99631.69;;;11.44;80.52
55470;BME280;41334;47.872;16.384;2023-05-03T05:02:04;99623.25;;;11.54;79.98
55470;BME280;41334;47.872;16.384;2023-05-03T05:07:06;99631.19;;;11.61;79.86
55470;BME280;41334;47.872;16.384;2023-05-03T05:12:08;99639.91;;;11.68;79.78
55470;BME280;41334;47.872;16.384;2023-05-03T05:17:13;99639.91;;;11.68;80.16
55470;BME280;41334;47.872;16.384;2023-05-03T05:22:16;99649.47;;;11.76;79.66
55470;BME280;41334;47.872;16.384;2023-05-03T05:27:25;99639.88;;;11.87;79.77
55470;BME280;41334;47.872;16.384;2023-05-03T05:32:29;99652.44;;;11.98;78.40
55470;BME280;41334;47.872;16.384;2023-05-03T05:37:32;99661.81;;;12.16;78.40
55470;BME280;41334;47.872;16.384;2023-05-03T05:42:37;99670.69;;;12.32;77.14
55470;BME280;41334;47.872;16.384;2023-05-03T05:47:40;99679.53;;;12.62;76.24
55470;BME280;41334;47.872;16.384;2023-05-03T05:52:42;99675.44;;;12.87;74.86
55470;BME280;41334;47.872;16.384;2023-05-03T05:57:47;99679.03;;;12.87;72.40
55470;BME280;41334;47.872;16.384;2023-05-03T06:02:53;99681.91;;;12.96;71.82
55470;BME280;41334;47.872;16.384;2023-05-03T06:07:56;99686.22;;;12.88;70.36
55470;BME280;41334;47.872;16.384;2023-05-03T06:12:58;99685.06;;;13.03;70.49
55470;BME280;41334;47.872;16.384;2023-05-03T06:18:01;99691.47;;;12.90;70.40
55470;BME280;41334;47.872;16.384;2023-05-03T06:23:05;99703.88;;;12.92;70.61
55470;BME280;41334;47.872;16.384;2023-05-03T06:28:07;99706.66;;;13.06;70.60
55470;BME280;41334;47.872;16.384;2023-05-03T06:33:11;99697.81;;;13.18;69.85
55470;BME280;41334;47.872;16.384;2023-05-03T06:38:17;99700.06;;;13.43;69.65
55470;BME280;41334;47.872;16.384;2023-05-03T06:43:19;99724.00;;;13.25;69.21
55470;BME280;41334;47.872;16.384;2023-05-03T06:48:34;99723.91;;;13.44;69.06
55470;BME280;41334;47.872;16.384;2023-05-03T06:53:38;99727.00;;;13.43;69.28
55470;BME280;41334;47.872;16.384;2023-05-03T06:58:40;99726.91;;;13.34;69.60
55470;BME280;41334;47.872;16.384;2023-05-03T07:03:41;99727.38;;;13.50;68.52
55470;BME280;41334;47.872;16.384;2023-05-03T07:08:45;99720.47;;;13.47;67.29
55470;BME280;41334;47.872;16.384;2023-05-03T07:13:47;99722.41;;;13.74;66.76
55470;BME280;41334;47.872;16.384;2023-05-03T07:18:49;99723.72;;;13.99;66.43
55470;BME280;41334;47.872;16.384;2023-05-03T07:23:50;99722.78;;;14.04;66.10
55470;BME280;41334;47.872;16.384;2023-05-03T07:28:52;99728.81;;;13.83;66.88
55470;BME280;41334;47.872;16.384;2023-05-03T07:33:54;99736.41;;;13.92;66.05
55470;BME280;41334;47.872;16.384;2023-05-03T07:38:56;99733.16;;;14.12;65.48
55470;BME280;41334;47.872;16.384;2023-05-03T07:43:59;99730.75;;;13.97;65.93
55470;BME280;41334;47.872;16.384;2023-05-03T07:49:02;99739.91;;;13.97;67.02
55470;BME280;41334;47.872;16.384;2023-05-03T07:54:05;99738.66;;;13.89;68.17
55470;BME280;41334;47.872;16.384;2023-05-03T07:59:07;99733.56;;;13.83;67.80
55470;BME280;41334;47.872;16.384;2023-05-03T08:04:11;99743.84;;;13.82;68.51
55470;BME280;41334;47.872;16.384;2023-05-03T08:09:16;99733.16;;;14.34;66.83
55470;BME280;41334;47.872;16.384;2023-05-03T08:14:18;99725.53;;;14.71;64.49
55470;BME280;41334;47.872;16.384;2023-05-03T08:19:19;99742.22;;;14.71;64.84
55470;BME280;41334;47.872;16.384;2023-05-03T08:24:22;99740.34;;;14.89;63.98
55470;BME280;41334;47.872;16.384;2023-05-03T08:29:23;99744.81;;;14.45;64.61
55470;BME280;41334;47.872;16.384;2023-05-03T08:34:28;99749.75;;;14.26;66.21
55470;BME280;41334;47.872;16.384;2023-05-03T08:39:32;99741.06;;;15.03;63.03
55470;BME280;41334;47.872;16.384;2023-05-03T08:44:36;99749.56;;;15.07;62.40
55470;BME280;41334;47.872;16.384;2023-05-03T08:49:39;99750.00;;;14.91;62.78
55470;BME280;41334;47.872;16.384;2023-05-03T08:54:42;99755.72;;;14.86;62.56
55470;BME280;41334;47.872;16.384;2023-05-03T08:59:51;99759.56;;;15.56;60.59
55470;BME280;41334;47.872;16.384;2023-05-03T09:04:54;99756.69;;;16.05;58.11
55470;BME280;41334;47.872;16.384;2023-05-03T09:09:57;99751.34;;;16.64;57.36
55470;BME280;41334;47.872;16.384;2023-05-03T09:15:01;99748.97;;;16.28;58.05
55470;BME280;41334;47.872;16.384;2023-05-03T09:20:04;99745.81;;;17.11;56.57
55470;BME280;41334;47.872;16.384;2023-05-03T09:25:09;99747.13;;;16.49;57.09
55470;BME280;41334;47.872;16.384;2023-05-03T09:30:16;99743.75;;;16.90;57.00
55470;BME280;41334;47.872;16.384;2023-05-03T09:35:19;99736.28;;;17.41;56.70
55470;BME280;41334;47.872;16.384;2023-05-03T09:40:21;99724.22;;;17.28;55.72
55470;BME280;41334;47.872;16.384;2023-05-03T09:45:25;99731.41;;;17.00;56.09
55470;BME280;41334;47.872;16.384;2023-05-03T09:50:28;99720.91;;;16.97;53.47
55470;BME280;41334;47.872;16.384;2023-05-03T09:55:37;99706.59;;;17.07;53.95
55470;BME280;41334;47.872;16.384;2023-05-03T10:00:40;99701.06;;;17.28;53.97
55470;BME280;41334;47.872;16.384;2023-05-03T10:05:47;99712.06;;;17.54;50.64
55470;BME280;41334;47.872;16.384;2023-05-03T10:10:49;99690.97;;;17.36;51.13
55470;BME280;41334;47.872;16.384;2023-05-03T10:16:11;99699.31;;;17.74;50.70
55470;BME280;41334;47.872;16.384;2023-05-03T10:21:23;99695.47;;;17.78;49.39
55470;BME280;41334;47.872;16.384;2023-05-03T10:26:26;99695.59;;;18.36;49.46
55470;BME280;41334;47.872;16.384;2023-05-03T10:31:49;99700.78;;;18.13;47.69
55470;BME280;41334;47.872;16.384;2023-05-03T10:36:51;99699.94;;;18.46;49.50
55470;BME280;41334;47.872;16.384;2023-05-03T10:42:04;99703.91;;;17.70;49.11
55470;BME280;41334;47.872;16.384;2023-05-03T10:47:16;99705.53;;;17.71;48.67
55470;BME280;41334;47.872;16.384;2023-05-03T10:57:40;99704.03;;;18.15;47.16
55470;BME280;41334;47.872;16.384;2023-05-03T11:08:22;99691.63;;;17.62;49.17
55470;BME280;41334;47.872;16.384;2023-05-03T11:13:26;99677.84;;;18.20;48.35
55470;BME280;41334;47.872;16.384;2023-05-03T11:18:28;99692.28;;;17.38;50.13
55470;BME280;41334;47.872;16.384;2023-05-03T11:23:30;99690.03;;;17.02;51.80
55470;BME280;41334;47.872;16.384;2023-05-03T11:28:32;99688.53;;;17.34;51.38
55470;BME280;41334;47.872;16.384;2023-05-03T11:33:35;99683.03;;;17.67;49.03
55470;BME280;41334;47.872;16.384;2023-05-03T11:38:38;99683.16;;;17.79;50.75
55470;BME280;41334;47.872;16.384;2023-05-03T11:43:45;99677.72;;;18.62;48.09
55470;BME280;41334;47.872;16.384;2023-05-03T11:48:47;99676.59;;;19.11;45.21
55470;BME280;41334;47.872;16.384;2023-05-03T11:53:49;99686.16;;;19.23;46.33
55470;BME280;41334;47.872;16.384;2023-05-03T11:58:56;99674.84;;;18.70;46.19
55470;BME280;41334;47.872;16.384;2023-05-03T12:04:00;99687.13;;;18.45;46.05
55470;BME280;41334;47.872;16.384;2023-05-03T12:09:12;99678.47;;;18.83;47.23
55470;BME280;41334;47.872;16.384;2023-05-03T12:14:15;99677.44;;;19.24;44.20
55470;BME280;41334;47.872;16.384;2023-05-03T12:19:25;99675.50;;;18.55;44.83
55470;BME280;41334;47.872;16.384;2023-05-03T12:24:28;99680.00;;;17.81;47.39
55470;BME280;41334;47.872;16.384;2023-05-03T12:29:32;99679.16;;;18.22;47.02
55470;BME280;41334;47.872;16.384;2023-05-03T12:34:36;99668.97;;;18.63;46.32
55470;BME280;41334;47.872;16.384;2023-05-03T12:39:41;99669.72;;;18.27;46.23
55470;BME280;41334;47.872;16.384;2023-05-03T12:44:48;99665.81;;;18.07;47.11
55470;BME280;41334;47.872;16.384;2023-05-03T12:49:54;99666.31;;;18.21;47.96
55470;BME280;41334;47.872;16.384;2023-05-03T12:55:00;99662.06;;;18.03;47.85
55470;BME280;41334;47.872;16.384;2023-05-03T13:00:05;99656.47;;;18.03;47.37
55470;BME280;41334;47.872;16.384;2023-05-03T13:05:18;99649.75;;;18.62;47.67
55470;BME280;41334;47.872;16.384;2023-05-03T13:10:34;99651.72;;;18.49;45.89
55470;BME280;41334;47.872;16.384;2023-05-03T13:15:36;99648.47;;;18.14;47.79
55470;BME280;41334;47.872;16.384;2023-05-03T13:20:38;99647.06;;;18.20;46.74
55470;BME280;41334;47.872;16.384;2023-05-03T13:25:42;99647.78;;;18.74;45.32
55470;BME280;41334;47.872;16.384;2023-05-03T13:30:44;99633.69;;;18.71;46.20
55470;BME280;41334;47.872;16.384;2023-05-03T13:35:47;99632.38;;;18.56;46.34
55470;BME280;41334;47.872;16.384;2023-05-03T13:40:51;99639.34;;;18.62;45.88
55470;BME280;41334;47.872;16.384;2023-05-03T13:46:01;99641.44;;;17.74;48.38
55470;BME280;41334;47.872;16.384;2023-05-03T13:51:12;99637.16;;;18.10;47.78
55470;BME280;41334;47.872;16.384;2023-05-03T13:56:15;99637.00;;;17.73;47.57
55470;BME280;41334;47.872;16.384;2023-05-03T14:01:20;99630.50;;;18.02;46.28
55470;BME280;41334;47.872;16.384;2023-05-03T14:06:22;99631.06;;;17.96;44.98
55470;BME280;41334;47.872;16.384;2023-05-03T14:11:24;99632.16;;;17.83;45.54
55470;BME280;41334;47.872;16.384;2023-05-03T14:16:26;99642.69;;;17.98;45.08
55470;BME280;41334;47.872;16.384;2023-05-03T14:21:41;99626.56;;;18.73;45.35
55470;BME280;41334;47.872;16.384;2023-05-03T14:26:43;99630.69;;;18.43;45.02
55470;BME280;41334;47.872;16.384;2023-05-03T14:31:45;99633.97;;;17.99;45.73
55470;BME280;41334;47.872;16.384;2023-05-03T14:36:47;99641.69;;;18.15;46.70
55470;BME280;41334;47.872;16.384;2023-05-03T14:41:49;99632.41;;;18.23;46.03
55470;BME280;41334;47.872;16.384;2023-05-03T14:46:51;99637.66;;;18.24;47.92
55470;BME280;41334;47.872;16.384;2023-05-03T14:51:54;99648.00;;;18.12;48.27
55470;BME280;41334;47.872;16.384;2023-05-03T14:56:55;99641.13;;;17.67;48.22
55470;BME280;41334;47.872;16.384;2023-05-03T15:01:57;99646.09;;;17.62;47.92
55470;BME280;41334;47.872;16.384;2023-05-03T15:07:00;99650.88;;;18.03;48.06
55470;BME280;41334;47.872;16.384;2023-05-03T15:12:03;99657.78;;;17.64;48.65
55470;BME280;41334;47.872;16.384;2023-05-03T15:17:05;99654.59;;;17.74;47.31
55470;BME280;41334;47.872;16.384;2023-05-03T15:22:07;99652.91;;;17.52;48.65
55470;BME280;41334;47.872;16.384;2023-05-03T15:27:09;99656.97;;;17.63;48.27
55470;BME280;41334;47.872;16.384;2023-05-03T15:32:11;99659.81;;;17.54;48.09
55470;BME280;41334;47.872;16.384;2023-05-03T15:37:12;99657.03;;;17.54;48.58
55470;BME280;41334;47.872;16.384;2023-05-03T15:42:14;99652.09;;;17.51;48.98
55470;BME280;41334;47.872;16.384;2023-05-03T15:47:16;99663.41;;;17.34;48.58
55470;BME280;41334;47.872;16.384;2023-05-03T15:52:18;99658.19;;;17.53;48.52
55470;BME280;41334;47.872;16.384;2023-05-03T15:57:20;99661.03;;;17.66;48.56
55470;BME280;41334;47.872;16.384;2023-05-03T16:02:22;99664.69;;;17.16;49.27
55470;BME280;41334;47.872;16.384;2023-05-03T16:07:24;99667.50;;;17.07;50.23
55470;BME280;41334;47.872;16.384;2023-05-03T16:12:27;99653.97;;;16.88;49.60
55470;BME280;41334;47.872;16.384;2023-05-03T16:17:30;99662.50;;;16.92;50.51
55470;BME280;41334;47.872;16.384;2023-05-03T16:22:32;99662.59;;;16.74;50.91
55470;BME280;41334;47.872;16.384;2023-05-03T16:27:33;99662.41;;;16.80;53.32
55470;BME280;41334;47.872;16.384;2023-05-03T16:32:35;99655.00;;;16.84;53.96
55470;BME280;41334;47.872;16.384;2023-05-03T16:37:37;99650.34;;;16.49;55.38
55470;BME280;41334;47.872;16.384;2023-05-03T16:42:41;99652.53;;;16.35;56.33
55470;BME280;41334;47.872;16.384;2023-05-03T16:47:45;99649.06;;;16.38;55.72
55470;BME280;41334;47.872;16.384;2023-05-03T16:52:47;99662.28;;;15.94;57.06
55470;BME280;41334;47.872;16.384;2023-05-03T16:57:49;99658.03;;;15.88;57.63
55470;BME280;41334;47.872;16.384;2023-05-03T17:02:50;99659.19;;;15.79;58.08
55470;BME280;41334;47.872;16.384;2023-05-03T17:07:52;99661.44;;;15.59;58.11
55470;BME280;41334;47.872;16.384;2023-05-03T17:12:58;99661.94;;;15.53;56.62
55470;BME280;41334;47.872;16.384;2023-05-03T17:18:01;99659.31;;;15.48;56.95
55470;BME280;41334;47.872;16.384;2023-05-03T17:23:05;99670.09;;;15.32;58.79
55470;BME280;41334;47.872;16.384;2023-05-03T17:28:07;99674.63;;;15.10;59.52
55470;BME280;41334;47.872;16.384;2023-05-03T17:33:09;99670.13;;;14.83;57.92
55470;BME280;41334;47.872;16.384;2023-05-03T17:38:11;99672.72;;;14.71;58.15
55470;BME280;41334;47.872;16.384;2023-05-03T17:43:13;99677.34;;;14.53;57.92
55470;BME280;41334;47.872;16.384;2023-05-03T17:48:18;99675.78;;;14.38;58.32
55470;BME280;41334;47.872;16.384;2023-05-03T17:53:21;99687.59;;;14.22;58.11
55470;BME280;41334;47.872;16.384;2023-05-03T17:58:25;99684.22;;;14.02;58.42
55470;BME280;41334;47.872;16.384;2023-05-03T18:03:27;99685.22;;;13.84;58.54
55470;BME280;41334;47.872;16.384;2023-05-03T18:08:29;99684.59;;;13.65;58.88
55470;BME280;41334;47.872;16.384;2023-05-03T18:13:31;99694.28;;;13.53;59.52
55470;BME280;41334;47.872;16.384;2023-05-03T18:18:37;99704.28;;;13.41;59.87
55470;BME280;41334;47.872;16.384;2023-05-03T18:23:39;99707.09;;;13.27;60.49
55470;BME280;41334;47.872;16.384;2023-05-03T18:28:43;99719.69;;;13.19;60.90
55470;BME280;41334;47.872;16.384;2023-05-03T18:33:44;99718.66;;;13.15;60.66
55470;BME280;41334;47.872;16.384;2023-05-03T18:38:47;99725.44;;;13.09;60.96
55470;BME280;41334;47.872;16.384;2023-05-03T18:43:49;99735.72;;;13.08;60.48
55470;BME280;41334;47.872;16.384;2023-05-03T18:48:52;99733.03;;;13.03;60.63
55470;BME280;41334;47.872;16.384;2023-05-03T18:53:54;99741.78;;;12.97;59.99
55470;BME280;41334;47.872;16.384;2023-05-03T18:58:56;99753.06;;;12.87;60.28
55470;BME280;41334;47.872;16.384;2023-05-03T19:03:58;99753.16;;;12.81;59.80
55470;BME280;41334;47.872;16.384;2023-05-03T19:08:59;99746.66;;;12.72;59.48
55470;BME280;41334;47.872;16.384;2023-05-03T19:14:02;99750.16;;;12.64;59.46
55470;BME280;41334;47.872;16.384;2023-05-03T19:19:04;99760.47;;;12.45;60.24
55470;BME280;41334;47.872;16.384;2023-05-03T19:24:08;99764.53;;;12.33;60.84
55470;BME280;41334;47.872;16.384;2023-05-03T19:29:12;99760.53;;;12.26;60.78
55470;BME280;41334;47.872;16.384;2023-05-03T19:34:14;99767.13;;;12.11;61.20
55470;BME280;41334;47.872;16.384;2023-05-03T19:39:15;99780.63;;;11.99;61.83
55470;BME280;41334;47.872;16.384;2023-05-03T19:44:18;99774.41;;;11.88;62.04
55470;BME280;41334;47.872;16.384;2023-05-03T19:49:20;99773.66;;;11.83;62.24
55470;BME280;41334;47.872;16.384;2023-05-03T19:54:22;99772.66;;;11.73;62.51
55470;BME280;41334;47.872;16.384;2023-05-03T19:59:24;99769.13;;;11.68;63.04
55470;BME280;41334;47.872;16.384;2023-05-03T20:04:25;99764.69;;;11.48;63.00
55470;BME280;41334;47.872;16.384;2023-05-03T20:09:27;99760.13;;;11.38;64.23
55470;BME280;41334;47.872;16.384;2023-05-03T20:14:30;99753.69;;;11.24;64.56
55470;BME280;41334;47.872;16.384;2023-05-03T20:19:33;99762.75;;;11.06;65.60
55470;BME280;41334;47.872;16.384;2023-05-03T20:24:34;99764.28;;;10.93;66.66
55470;BME280;41334;47.872;16.384;2023-05-03T20:29:36;99763.50;;;10.87;66.74
55470;BME280;41334;47.872;16.384;2023-05-03T20:34:38;99765.78;;;10.80;67.18
55470;BME280;41334;47.872;16.384;2023-05-03T20:39:40;99764.50;;;10.72;66.93
55470;BME280;41334;47.872;16.384;2023-05-03T20:44:42;99757.94;;;10.63;67.77
55470;BME280;41334;47.872;16.384;2023-05-03T20:49:45;99765.25;;;10.49;67.85
55470;BME280;41334;47.872;16.384;2023-05-03T20:54:47;99762.84;;;10.42;68.44
55470;BME280;41334;47.872;16.384;2023-05-03T20:59:48;99766.28;;;10.29;69.00
55470;BME280;41334;47.872;16.384;2023-05-03T21:04:50;99773.53;;;10.15;68.60
55470;BME280;41334;47.872;16.384;2023-05-03T21:09:52;99775.03;;;10.02;69.07
55470;BME280;41334;47.872;16.384;2023-05-03T21:14:54;99773.66;;;10.00;70.36
55470;BME280;41334;47.872;16.384;2023-05-03T21:19:55;99769.59;;;9.92;70.52
55470;BME280;41334;47.872;16.384;2023-05-03T21:24:57;99770.50;;;9.77;70.75
55470;BME280;41334;47.872;16.384;2023-05-03T21:29:59;99768.63;;;9.67;71.00
55470;BME280;41334;47.872;16.384;2023-05-03T21:35:02;99766.72;;;9.63;71.08
55470;BME280;41334;47.872;16.384;2023-05-03T21:40:04;99773.97;;;9.54;71.20
55470;BME280;41334;47.872;16.384;2023-05-03T21:45:08;99781.38;;;9.53;72.25
55470;BME280;41334;47.872;16.384;2023-05-03T21:50:10;99770.34;;;9.53;72.32
55470;BME280;41334;47.872;16.384;2023-05-03T21:55:12;99774.81;;;9.49;72.45
55470;BME280;41334;47.872;16.384;2023-05-03T22:00:16;99772.91;;;9.44;72.38
55470;BME280;41334;47.872;16.384;2023-05-03T22:05:33;99772.97;;;9.29;71.74
55470;BME280;41334;47.872;16.384;2023-05-03T22:10:35;99782.06;;;9.25;73.80
55470;BME280;41334;47.872;16.384;2023-05-03T22:15:37;99779.91;;;9.22;74.42
55470;BME280;41334;47.872;16.384;2023-05-03T22:20:39;99771.91;;;9.20;74.26
55470;BME280;41334;47.872;16.384;2023-05-03T22:25:40;99774.44;;;9.11;75.33
55470;BME280;41334;47.872;16.384;2023-05-03T22:30:42;99771.13;;;9.04;75.24
55470;BME280;41334;47.872;16.384;2023-05-03T22:35:44;99768.69;;;8.98;74.63
55470;BME280;41334;47.872;16.384;2023-05-03T22:40:46;99762.09;;;8.88;75.12
55470;BME280;41334;47.872;16.384;2023-05-03T22:45:48;99764.31;;;8.81;74.83
55470;BME280;41334;47.872;16.384;2023-05-03T22:50:50;99759.94;;;8.75;75.62
55470;BME280;41334;47.872;16.384;2023-05-03T23:00:56;99754.16;;;8.61;75.03
55470;BME280;41334;47.872;16.384;2023-05-03T23:05:58;99762.72;;;8.60;77.03
55470;BME280;41334;47.872;16.384;2023-05-03T23:11:00;99750.34;;;8.52;75.93
55470;BME280;41334;47.872;16.384;2023-05-03T23:16:02;99756.94;;;8.46;76.98
55470;BME280;41334;47.872;16.384;2023-05-03T23:21:04;99755.06;;;8.36;76.59
55470;BME280;41334;47.872;16.384;2023-05-03T23:26:06;99758.03;;;8.30;77.15
55470;BME280;41334;47.872;16.384;2023-05-03T23:31:08;99757.50;;;8.28;78.89
55470;BME280;41334;47.872;16.384;2023-05-03T23:36:10;99746.47;;;8.28;77.44
55470;BME280;41334;47.872;16.384;2023-05-03T23:41:12;99751.16;;;8.22;77.01
55470;BME280;41334;47.872;16.384;2023-05-03T23:46:14;99747.59;;;8.11;77.02
55470;BME280;41334;47.872;16.384;2023-05-03T23:51:17;99754.75;;;8.12;77.37
55470;BME280;41334;47.872;16.384;2023-05-03T23:56:18;99759.72;;;8.21;77.47
